sensor_id;sensor_type;location;lat;lon;timestamp;P1;durP1;ratioP1;P2;durP2;ratioP2
78430;SDS011;67727;50.236;22.452;2023-03-12T00:00:16;7.10;;;4.70;;
78430;SDS011;67727;50.236;22.452;2023-03-12T00:03:03;9.50;;;5.00;;
78430;SDS011;67727;50.236;22.452;2023-03-12T00:05:31;9.70;;;5.20;;
78430;SDS011;67727;50.236;22.452;2023-03-12T00:07:58;9.40;;;5.50;;
78430;SDS011;67727;50.236;22.452;2023-03-12T00:10:25;9.90;;;4.70;;
78430;SDS011;67727;50.236;22.452;2023-03-12T00:12:52;7.60;;;3.50;;
78430;SDS011;67727;50.236;22.452;2023-03-12T00:15:19;10.20;;;4.70;;
78430;SDS011;67727;50.236;22.452;2023-03-12T00:17:47;6.90;;;4.60;;
78430;SDS011;67727;50.236;22.452;2023-03-12T00:20:14;7.90;;;4.50;;
78430;SDS011;67727;50.236;22.452;2023-03-12T00:22:41;10.40;;;4.80;;
78430;SDS011;67727;50.236;22.452;2023-03-12T00:25:10;9.10;;;4.50;;
78430;SDS011;67727;50.236;22.452;2023-03-12T00:27:41;7.00;;;4.70;;
78430;SDS011;67727;50.236;22.452;2023-03-12T00:30:09;9.10;;;5.60;;
78430;SDS011;67727;50.236;22.452;2023-03-12T00:32:36;6.80;;;4.50;;
78430;SDS011;67727;50.236;22.452;2023-03-12T00:35:04;7.60;;;4.00;;
78430;SDS011;67727;50.236;22.452;2023-03-12T00:37:31;6.40;;;4.50;;
78430;SDS011;67727;50.236;22.452;2023-03-12T00:39:59;9.70;;;5.70;;
78430;SDS011;67727;50.236;22.452;2023-03-12T00:42:27;7.80;;;4.20;;
78430;SDS011;67727;50.236;22.452;2023-03-12T00:44:54;7.40;;;4.90;;
78430;SDS011;67727;50.236;22.452;2023-03-12T00:47:21;4.80;;;3.90;;
78430;SDS011;67727;50.236;22.452;2023-03-12T00:49:48;9.30;;;4.90;;
78430;SDS011;67727;50.236;22.452;2023-03-12T00:52:15;10.10;;;5.50;;
78430;SDS011;67727;50.236;22.452;2023-03-12T00:54:42;8.30;;;5.40;;
78430;SDS011;67727;50.236;22.452;2023-03-12T00:57:09;10.60;;;6.10;;
78430;SDS011;67727;50.236;22.452;2023-03-12T00:59:36;8.30;;;5.10;;
78430;SDS011;67727;50.236;22.452;2023-03-12T01:02:06;8.80;;;4.20;;
78430;SDS011;67727;50.236;22.452;2023-03-12T01:04:34;9.30;;;4.80;;
78430;SDS011;67727;50.236;22.452;2023-03-12T01:07:01;6.30;;;4.00;;
78430;SDS011;67727;50.236;22.452;2023-03-12T01:09:28;5.60;;;3.70;;
78430;SDS011;67727;50.236;22.452;2023-03-12T01:11:55;10.50;;;6.40;;
78430;SDS011;67727;50.236;22.452;2023-03-12T01:14:22;9.20;;;5.90;;
78430;SDS011;67727;50.236;22.452;2023-03-12T01:16:49;8.80;;;5.60;;
78430;SDS011;67727;50.236;22.452;2023-03-12T01:19:16;5.50;;;3.80;;
78430;SDS011;67727;50.236;22.452;2023-03-12T01:21:44;14.70;;;7.10;;
78430;SDS011;67727;50.236;22.452;2023-03-12T01:24:11;8.00;;;4.90;;
78430;SDS011;67727;50.236;22.452;2023-03-12T01:26:38;9.70;;;5.20;;
78430;SDS011;67727;50.236;22.452;2023-03-12T01:29:05;9.90;;;5.10;;
78430;SDS011;67727;50.236;22.452;2023-03-12T01:31:32;12.10;;;5.60;;
78430;SDS011;67727;50.236;22.452;2023-03-12T01:33:59;4.60;;;4.00;;
78430;SDS011;67727;50.236;22.452;2023-03-12T01:36:27;9.90;;;5.00;;
78430;SDS011;67727;50.236;22.452;2023-03-12T01:38:57;8.20;;;5.00;;
78430;SDS011;67727;50.236;22.452;2023-03-12T01:41:26;5.60;;;3.10;;
78430;SDS011;67727;50.236;22.452;2023-03-12T01:43:55;10.20;;;5.70;;
78430;SDS011;67727;50.236;22.452;2023-03-12T01:49:10;9.90;;;5.80;;
78430;SDS011;67727;50.236;22.452;2023-03-12T01:51:45;7.90;;;5.40;;
78430;SDS011;67727;50.236;22.452;2023-03-12T01:54:30;9.80;;;5.50;;
78430;SDS011;67727;50.236;22.452;2023-03-12T01:57:02;8.90;;;5.10;;
78430;SDS011;67727;50.236;22.452;2023-03-12T01:59:32;11.50;;;7.80;;
78430;SDS011;67727;50.236;22.452;2023-03-12T02:02:04;9.20;;;4.80;;
78430;SDS011;67727;50.236;22.452;2023-03-12T02:04:33;11.30;;;6.40;;
78430;SDS011;67727;50.236;22.452;2023-03-12T02:07:04;15.60;;;7.40;;
78430;SDS011;67727;50.236;22.452;2023-03-12T02:09:35;16.30;;;8.30;;
78430;SDS011;67727;50.236;22.452;2023-03-12T02:12:06;10.30;;;6.10;;
78430;SDS011;67727;50.236;22.452;2023-03-12T02:14:33;10.00;;;6.10;;
78430;SDS011;67727;50.236;22.452;2023-03-12T02:19:34;9.00;;;5.50;;
78430;SDS011;67727;50.236;22.452;2023-03-12T02:22:22;10.00;;;6.30;;
78430;SDS011;67727;50.236;22.452;2023-03-12T02:24:57;8.40;;;5.20;;
78430;SDS011;67727;50.236;22.452;2023-03-12T02:27:44;10.40;;;6.00;;
78430;SDS011;67727;50.236;22.452;2023-03-12T02:30:12;10.20;;;6.30;;
78430;SDS011;67727;50.236;22.452;2023-03-12T02:32:41;10.40;;;5.80;;
78430;SDS011;67727;50.236;22.452;2023-03-12T02:35:11;6.30;;;4.80;;
78430;SDS011;67727;50.236;22.452;2023-03-12T02:37:49;14.50;;;8.00;;
78430;SDS011;67727;50.236;22.452;2023-03-12T02:42:51;14.70;;;8.40;;
78430;SDS011;67727;50.236;22.452;2023-03-12T02:45:19;14.40;;;8.30;;
78430;SDS011;67727;50.236;22.452;2023-03-12T02:47:47;15.40;;;8.80;;
78430;SDS011;67727;50.236;22.452;2023-03-12T02:50:14;13.60;;;6.40;;
78430;SDS011;67727;50.236;22.452;2023-03-12T02:52:41;8.70;;;6.00;;
78430;SDS011;67727;50.236;22.452;2023-03-12T02:55:08;9.90;;;5.40;;
78430;SDS011;67727;50.236;22.452;2023-03-12T02:57:35;11.30;;;8.40;;
78430;SDS011;67727;50.236;22.452;2023-03-12T03:00:06;9.30;;;6.20;;
78430;SDS011;67727;50.236;22.452;2023-03-12T03:02:38;10.70;;;5.70;;
78430;SDS011;67727;50.236;22.452;2023-03-12T03:05:06;5.90;;;3.40;;
78430;SDS011;67727;50.236;22.452;2023-03-12T03:07:35;11.90;;;7.00;;
78430;SDS011;67727;50.236;22.452;2023-03-12T03:10:03;14.20;;;7.80;;
78430;SDS011;67727;50.236;22.452;2023-03-12T03:12:31;11.40;;;6.40;;
78430;SDS011;67727;50.236;22.452;2023-03-12T03:14:59;9.50;;;6.10;;
78430;SDS011;67727;50.236;22.452;2023-03-12T03:17:26;8.70;;;6.20;;
78430;SDS011;67727;50.236;22.452;2023-03-12T03:19:54;6.60;;;4.90;;
78430;SDS011;67727;50.236;22.452;2023-03-12T03:22:21;9.00;;;5.80;;
78430;SDS011;67727;50.236;22.452;2023-03-12T03:24:48;10.00;;;5.80;;
78430;SDS011;67727;50.236;22.452;2023-03-12T03:27:15;10.30;;;6.00;;
78430;SDS011;67727;50.236;22.452;2023-03-12T03:29:43;12.80;;;6.90;;
78430;SDS011;67727;50.236;22.452;2023-03-12T03:32:12;5.20;;;3.60;;
78430;SDS011;67727;50.236;22.452;2023-03-12T03:34:39;5.30;;;3.10;;
78430;SDS011;67727;50.236;22.452;2023-03-12T03:37:06;14.10;;;7.30;;
78430;SDS011;67727;50.236;22.452;2023-03-12T03:39:33;12.40;;;5.80;;
78430;SDS011;67727;50.236;22.452;2023-03-12T03:42:00;5.10;;;3.80;;
78430;SDS011;67727;50.236;22.452;2023-03-12T03:44:27;8.40;;;5.50;;
78430;SDS011;67727;50.236;22.452;2023-03-12T03:46:55;11.00;;;5.30;;
78430;SDS011;67727;50.236;22.452;2023-03-12T03:49:23;5.30;;;4.00;;
78430;SDS011;67727;50.236;22.452;2023-03-12T03:51:50;7.20;;;5.40;;
78430;SDS011;67727;50.236;22.452;2023-03-12T03:54:18;11.30;;;6.60;;
78430;SDS011;67727;50.236;22.452;2023-03-12T03:56:45;17.40;;;8.10;;
78430;SDS011;67727;50.236;22.452;2023-03-12T03:59:13;13.10;;;6.80;;
78430;SDS011;67727;50.236;22.452;2023-03-12T04:01:40;7.50;;;5.10;;
78430;SDS011;67727;50.236;22.452;2023-03-12T04:04:07;5.90;;;4.60;;
78430;SDS011;67727;50.236;22.452;2023-03-12T04:06:34;10.20;;;5.90;;
78430;SDS011;67727;50.236;22.452;2023-03-12T04:09:01;10.70;;;6.20;;
78430;SDS011;67727;50.236;22.452;2023-03-12T04:11:29;8.40;;;5.20;;
78430;SDS011;67727;50.236;22.452;2023-03-12T04:13:56;8.50;;;4.90;;
78430;SDS011;67727;50.236;22.452;2023-03-12T04:16:23;15.70;;;8.00;;
78430;SDS011;67727;50.236;22.452;2023-03-12T04:18:51;9.30;;;5.70;;
78430;SDS011;67727;50.236;22.452;2023-03-12T04:21:18;11.00;;;6.10;;
78430;SDS011;67727;50.236;22.452;2023-03-12T04:23:45;7.20;;;4.40;;
78430;SDS011;67727;50.236;22.452;2023-03-12T04:26:12;11.30;;;6.10;;
78430;SDS011;67727;50.236;22.452;2023-03-12T04:28:39;4.20;;;3.70;;
78430;SDS011;67727;50.236;22.452;2023-03-12T04:31:06;6.40;;;5.10;;
78430;SDS011;67727;50.236;22.452;2023-03-12T04:33:35;7.00;;;5.30;;
78430;SDS011;67727;50.236;22.452;2023-03-12T04:36:03;9.90;;;6.80;;
78430;SDS011;67727;50.236;22.452;2023-03-12T04:38:31;8.80;;;6.10;;
78430;SDS011;67727;50.236;22.452;2023-03-12T04:41:09;10.20;;;6.50;;
78430;SDS011;67727;50.236;22.452;2023-03-12T04:43:39;10.50;;;6.40;;
78430;SDS011;67727;50.236;22.452;2023-03-12T04:46:06;6.60;;;5.10;;
78430;SDS011;67727;50.236;22.452;2023-03-12T04:48:34;7.10;;;4.30;;
78430;SDS011;67727;50.236;22.452;2023-03-12T04:51:02;8.90;;;5.50;;
78430;SDS011;67727;50.236;22.452;2023-03-12T04:53:30;10.00;;;5.80;;
78430;SDS011;67727;50.236;22.452;2023-03-12T04:55:57;14.40;;;6.90;;
78430;SDS011;67727;50.236;22.452;2023-03-12T04:58:25;9.90;;;6.60;;
78430;SDS011;67727;50.236;22.452;2023-03-12T05:00:52;11.20;;;8.00;;
78430;SDS011;67727;50.236;22.452;2023-03-12T05:03:19;10.90;;;7.40;;
78430;SDS011;67727;50.236;22.452;2023-03-12T05:05:46;10.50;;;5.70;;
78430;SDS011;67727;50.236;22.452;2023-03-12T05:08:13;8.20;;;5.90;;
78430;SDS011;67727;50.236;22.452;2023-03-12T05:10:41;11.40;;;4.90;;
78430;SDS011;67727;50.236;22.452;2023-03-12T05:13:20;8.30;;;5.10;;
78430;SDS011;67727;50.236;22.452;2023-03-12T05:15:48;11.20;;;5.70;;
78430;SDS011;67727;50.236;22.452;2023-03-12T05:18:16;5.90;;;4.20;;
78430;SDS011;67727;50.236;22.452;2023-03-12T05:20:43;4.30;;;3.20;;
78430;SDS011;67727;50.236;22.452;2023-03-12T05:23:10;9.60;;;7.20;;
78430;SDS011;67727;50.236;22.452;2023-03-12T05:25:38;16.00;;;8.30;;
78430;SDS011;67727;50.236;22.452;2023-03-12T05:28:06;5.40;;;4.80;;
78430;SDS011;67727;50.236;22.452;2023-03-12T05:30:33;12.10;;;6.40;;
78430;SDS011;67727;50.236;22.452;2023-03-12T05:33:00;7.80;;;5.10;;
78430;SDS011;67727;50.236;22.452;2023-03-12T05:35:27;10.10;;;5.70;;
78430;SDS011;67727;50.236;22.452;2023-03-12T05:37:54;6.10;;;5.00;;
78430;SDS011;67727;50.236;22.452;2023-03-12T05:40:21;8.80;;;4.50;;
78430;SDS011;67727;50.236;22.452;2023-03-12T05:42:48;8.70;;;5.00;;
78430;SDS011;67727;50.236;22.452;2023-03-12T05:45:15;9.80;;;6.00;;
78430;SDS011;67727;50.236;22.452;2023-03-12T05:47:45;12.20;;;5.60;;
78430;SDS011;67727;50.236;22.452;2023-03-12T05:50:12;6.30;;;4.00;;
78430;SDS011;67727;50.236;22.452;2023-03-12T05:52:41;7.40;;;4.60;;
78430;SDS011;67727;50.236;22.452;2023-03-12T05:55:08;4.50;;;4.00;;
78430;SDS011;67727;50.236;22.452;2023-03-12T05:57:36;5.60;;;3.90;;
78430;SDS011;67727;50.236;22.452;2023-03-12T06:00:03;10.40;;;4.80;;
78430;SDS011;67727;50.236;22.452;2023-03-12T06:02:30;5.80;;;4.00;;
78430;SDS011;67727;50.236;22.452;2023-03-12T06:04:57;14.00;;;7.30;;
78430;SDS011;67727;50.236;22.452;2023-03-12T06:07:24;12.40;;;6.10;;
78430;SDS011;67727;50.236;22.452;2023-03-12T06:09:51;10.10;;;6.70;;
78430;SDS011;67727;50.236;22.452;2023-03-12T06:12:18;11.20;;;6.10;;
78430;SDS011;67727;50.236;22.452;2023-03-12T06:14:46;13.20;;;8.50;;
78430;SDS011;67727;50.236;22.452;2023-03-12T06:17:13;10.40;;;5.50;;
78430;SDS011;67727;50.236;22.452;2023-03-12T06:19:40;12.20;;;6.60;;
78430;SDS011;67727;50.236;22.452;2023-03-12T06:22:07;6.70;;;4.00;;
78430;SDS011;67727;50.236;22.452;2023-03-12T06:24:34;8.60;;;5.90;;
78430;SDS011;67727;50.236;22.452;2023-03-12T06:27:01;13.10;;;6.80;;
78430;SDS011;67727;50.236;22.452;2023-03-12T06:29:29;16.00;;;8.10;;
78430;SDS011;67727;50.236;22.452;2023-03-12T06:31:56;11.50;;;6.50;;
78430;SDS011;67727;50.236;22.452;2023-03-12T06:34:23;10.70;;;6.50;;
78430;SDS011;67727;50.236;22.452;2023-03-12T06:36:50;7.80;;;5.50;;
78430;SDS011;67727;50.236;22.452;2023-03-12T06:39:17;9.50;;;5.70;;
78430;SDS011;67727;50.236;22.452;2023-03-12T06:41:44;7.90;;;4.80;;
78430;SDS011;67727;50.236;22.452;2023-03-12T06:44:11;10.20;;;6.60;;
78430;SDS011;67727;50.236;22.452;2023-03-12T06:46:38;8.20;;;4.60;;
78430;SDS011;67727;50.236;22.452;2023-03-12T06:49:06;6.20;;;4.10;;
78430;SDS011;67727;50.236;22.452;2023-03-12T06:51:33;15.10;;;7.40;;
78430;SDS011;67727;50.236;22.452;2023-03-12T06:54:00;12.90;;;6.40;;
78430;SDS011;67727;50.236;22.452;2023-03-12T06:56:28;14.70;;;9.70;;
78430;SDS011;67727;50.236;22.452;2023-03-12T06:58:56;9.40;;;5.90;;
78430;SDS011;67727;50.236;22.452;2023-03-12T07:01:23;10.10;;;7.10;;
78430;SDS011;67727;50.236;22.452;2023-03-12T07:03:50;14.30;;;7.20;;
78430;SDS011;67727;50.236;22.452;2023-03-12T07:06:18;11.50;;;6.20;;
78430;SDS011;67727;50.236;22.452;2023-03-12T07:08:46;8.90;;;5.20;;
78430;SDS011;67727;50.236;22.452;2023-03-12T07:11:14;8.70;;;4.00;;
78430;SDS011;67727;50.236;22.452;2023-03-12T07:13:43;9.90;;;5.80;;
78430;SDS011;67727;50.236;22.452;2023-03-12T07:16:10;16.00;;;7.40;;
78430;SDS011;67727;50.236;22.452;2023-03-12T07:18:37;14.50;;;8.30;;
78430;SDS011;67727;50.236;22.452;2023-03-12T07:21:04;9.90;;;6.90;;
78430;SDS011;67727;50.236;22.452;2023-03-12T07:23:32;8.40;;;5.70;;
78430;SDS011;67727;50.236;22.452;2023-03-12T07:25:59;12.10;;;7.40;;
78430;SDS011;67727;50.236;22.452;2023-03-12T07:28:26;19.90;;;10.00;;
78430;SDS011;67727;50.236;22.452;2023-03-12T07:30:58;11.50;;;5.40;;
78430;SDS011;67727;50.236;22.452;2023-03-12T07:33:26;15.90;;;9.80;;
78430;SDS011;67727;50.236;22.452;2023-03-12T07:35:53;10.30;;;6.90;;
78430;SDS011;67727;50.236;22.452;2023-03-12T07:38:20;14.30;;;9.10;;
78430;SDS011;67727;50.236;22.452;2023-03-12T07:40:50;7.30;;;3.90;;
78430;SDS011;67727;50.236;22.452;2023-03-12T07:43:19;13.80;;;6.90;;
78430;SDS011;67727;50.236;22.452;2023-03-12T07:45:46;11.90;;;7.70;;
78430;SDS011;67727;50.236;22.452;2023-03-12T07:48:13;11.90;;;6.50;;
78430;SDS011;67727;50.236;22.452;2023-03-12T07:50:41;22.40;;;14.90;;
78430;SDS011;67727;50.236;22.452;2023-03-12T07:53:08;36.70;;;19.10;;
78430;SDS011;67727;50.236;22.452;2023-03-12T07:55:35;25.90;;;16.80;;
78430;SDS011;67727;50.236;22.452;2023-03-12T07:58:02;17.50;;;10.90;;
78430;SDS011;67727;50.236;22.452;2023-03-12T08:00:30;15.00;;;7.30;;
78430;SDS011;67727;50.236;22.452;2023-03-12T08:02:57;13.20;;;8.40;;
78430;SDS011;67727;50.236;22.452;2023-03-12T08:05:24;10.20;;;6.10;;
78430;SDS011;67727;50.236;22.452;2023-03-12T08:07:52;19.00;;;8.40;;
78430;SDS011;67727;50.236;22.452;2023-03-12T08:10:20;9.40;;;5.90;;
78430;SDS011;67727;50.236;22.452;2023-03-12T08:12:47;12.20;;;7.40;;
78430;SDS011;67727;50.236;22.452;2023-03-12T08:15:15;15.80;;;9.60;;
78430;SDS011;67727;50.236;22.452;2023-03-12T08:17:42;10.20;;;6.70;;
78430;SDS011;67727;50.236;22.452;2023-03-12T08:20:10;13.00;;;6.60;;
78430;SDS011;67727;50.236;22.452;2023-03-12T08:22:38;10.80;;;6.80;;
78430;SDS011;67727;50.236;22.452;2023-03-12T08:25:05;14.40;;;8.10;;
78430;SDS011;67727;50.236;22.452;2023-03-12T08:27:34;14.10;;;8.50;;
78430;SDS011;67727;50.236;22.452;2023-03-12T08:30:01;11.60;;;7.20;;
78430;SDS011;67727;50.236;22.452;2023-03-12T08:32:29;6.10;;;4.70;;
78430;SDS011;67727;50.236;22.452;2023-03-12T08:34:57;10.80;;;6.60;;
78430;SDS011;67727;50.236;22.452;2023-03-12T08:37:24;14.40;;;7.60;;
78430;SDS011;67727;50.236;22.452;2023-03-12T08:39:51;8.70;;;3.70;;
78430;SDS011;67727;50.236;22.452;2023-03-12T08:42:18;13.70;;;7.60;;
78430;SDS011;67727;50.236;22.452;2023-03-12T08:44:45;14.90;;;9.10;;
78430;SDS011;67727;50.236;22.452;2023-03-12T08:47:12;12.60;;;8.00;;
78430;SDS011;67727;50.236;22.452;2023-03-12T08:49:39;12.10;;;7.30;;
78430;SDS011;67727;50.236;22.452;2023-03-12T08:52:06;13.70;;;8.10;;
78430;SDS011;67727;50.236;22.452;2023-03-12T08:54:33;11.70;;;7.00;;
78430;SDS011;67727;50.236;22.452;2023-03-12T08:57:00;11.40;;;6.20;;
78430;SDS011;67727;50.236;22.452;2023-03-12T08:59:27;11.90;;;6.60;;
78430;SDS011;67727;50.236;22.452;2023-03-12T09:01:55;7.30;;;4.50;;
78430;SDS011;67727;50.236;22.452;2023-03-12T09:04:22;6.20;;;4.20;;
78430;SDS011;67727;50.236;22.452;2023-03-12T09:06:49;13.80;;;7.50;;
78430;SDS011;67727;50.236;22.452;2023-03-12T09:09:16;13.70;;;7.30;;
78430;SDS011;67727;50.236;22.452;2023-03-12T09:11:43;9.40;;;6.20;;
78430;SDS011;67727;50.236;22.452;2023-03-12T09:14:10;13.30;;;7.50;;
78430;SDS011;67727;50.236;22.452;2023-03-12T09:16:38;17.40;;;8.00;;
78430;SDS011;67727;50.236;22.452;2023-03-12T09:19:05;7.20;;;4.60;;
78430;SDS011;67727;50.236;22.452;2023-03-12T09:21:32;14.20;;;7.00;;
78430;SDS011;67727;50.236;22.452;2023-03-12T09:23:59;13.90;;;7.00;;
78430;SDS011;67727;50.236;22.452;2023-03-12T09:26:26;13.20;;;6.90;;
78430;SDS011;67727;50.236;22.452;2023-03-12T09:28:53;10.00;;;6.10;;
78430;SDS011;67727;50.236;22.452;2023-03-12T09:31:22;26.90;;;10.50;;
78430;SDS011;67727;50.236;22.452;2023-03-12T09:33:49;14.00;;;6.90;;
78430;SDS011;67727;50.236;22.452;2023-03-12T09:38:44;11.60;;;6.60;;
78430;SDS011;67727;50.236;22.452;2023-03-12T09:41:16;11.40;;;6.20;;
78430;SDS011;67727;50.236;22.452;2023-03-12T09:43:51;10.10;;;4.90;;
78430;SDS011;67727;50.236;22.452;2023-03-12T09:49:10;11.20;;;6.90;;
78430;SDS011;67727;50.236;22.452;2023-03-12T09:51:45;6.70;;;4.20;;
78430;SDS011;67727;50.236;22.452;2023-03-12T09:54:22;9.60;;;5.40;;
78430;SDS011;67727;50.236;22.452;2023-03-12T09:56:54;7.60;;;4.70;;
78430;SDS011;67727;50.236;22.452;2023-03-12T09:59:23;5.60;;;3.50;;
78430;SDS011;67727;50.236;22.452;2023-03-12T10:01:55;10.20;;;4.50;;
78430;SDS011;67727;50.236;22.452;2023-03-12T10:04:45;8.80;;;4.80;;
78430;SDS011;67727;50.236;22.452;2023-03-12T10:07:33;7.40;;;5.60;;
78430;SDS011;67727;50.236;22.452;2023-03-12T10:24:34;13.30;;;4.70;;
78430;SDS011;67727;50.236;22.452;2023-03-12T10:27:15;10.50;;;5.90;;
78430;SDS011;67727;50.236;22.452;2023-03-12T10:29:45;9.60;;;5.60;;
78430;SDS011;67727;50.236;22.452;2023-03-12T10:32:17;12.10;;;6.70;;
78430;SDS011;67727;50.236;22.452;2023-03-12T10:34:55;11.40;;;5.30;;
78430;SDS011;67727;50.236;22.452;2023-03-12T10:40:03;9.70;;;5.80;;
78430;SDS011;67727;50.236;22.452;2023-03-12T10:42:31;8.30;;;4.60;;
78430;SDS011;67727;50.236;22.452;2023-03-12T10:45:00;10.90;;;5.70;;
78430;SDS011;67727;50.236;22.452;2023-03-12T10:47:37;11.10;;;6.20;;
78430;SDS011;67727;50.236;22.452;2023-03-12T10:52:49;14.50;;;7.00;;
78430;SDS011;67727;50.236;22.452;2023-03-12T10:57:44;10.20;;;5.10;;
78430;SDS011;67727;50.236;22.452;2023-03-12T11:00:17;12.30;;;7.00;;
78430;SDS011;67727;50.236;22.452;2023-03-12T11:05:27;8.80;;;5.20;;
78430;SDS011;67727;50.236;22.452;2023-03-12T11:07:59;11.00;;;6.20;;
78430;SDS011;67727;50.236;22.452;2023-03-12T11:13:00;9.70;;;5.20;;
78430;SDS011;67727;50.236;22.452;2023-03-12T11:15:39;10.70;;;5.00;;
78430;SDS011;67727;50.236;22.452;2023-03-12T11:20:51;10.80;;;4.60;;
78430;SDS011;67727;50.236;22.452;2023-03-12T11:23:23;11.20;;;5.80;;
78430;SDS011;67727;50.236;22.452;2023-03-12T11:25:58;9.90;;;5.40;;
78430;SDS011;67727;50.236;22.452;2023-03-12T11:28:47;23.60;;;10.00;;
78430;SDS011;67727;50.236;22.452;2023-03-12T11:31:26;15.80;;;6.20;;
78430;SDS011;67727;50.236;22.452;2023-03-12T11:33:58;9.70;;;5.20;;
78430;SDS011;67727;50.236;22.452;2023-03-12T11:36:37;6.10;;;3.30;;
78430;SDS011;67727;50.236;22.452;2023-03-12T11:42:03;8.00;;;4.60;;
78430;SDS011;67727;50.236;22.452;2023-03-12T11:44:48;9.90;;;5.70;;
78430;SDS011;67727;50.236;22.452;2023-03-12T11:47:43;7.10;;;4.90;;
78430;SDS011;67727;50.236;22.452;2023-03-12T11:58:41;7.40;;;4.50;;
78430;SDS011;67727;50.236;22.452;2023-03-12T12:01:25;12.10;;;5.80;;
78430;SDS011;67727;50.236;22.452;2023-03-12T12:04:13;10.60;;;4.50;;
78430;SDS011;67727;50.236;22.452;2023-03-12T12:21:01;16.80;;;4.10;;
78430;SDS011;67727;50.236;22.452;2023-03-12T12:26:30;5.50;;;4.10;;
78430;SDS011;67727;50.236;22.452;2023-03-12T12:32:12;8.70;;;4.50;;
78430;SDS011;67727;50.236;22.452;2023-03-12T12:34:52;6.60;;;4.40;;
78430;SDS011;67727;50.236;22.452;2023-03-12T12:42:46;9.70;;;5.30;;
78430;SDS011;67727;50.236;22.452;2023-03-12T12:45:32;11.30;;;4.80;;
78430;SDS011;67727;50.236;22.452;2023-03-12T12:48:11;10.60;;;4.00;;
78430;SDS011;67727;50.236;22.452;2023-03-12T12:50:45;10.90;;;5.10;;
78430;SDS011;67727;50.236;22.452;2023-03-12T12:55:45;7.00;;;3.60;;
78430;SDS011;67727;50.236;22.452;2023-03-12T12:58:39;11.20;;;3.70;;
78430;SDS011;67727;50.236;22.452;2023-03-12T13:01:18;7.90;;;3.90;;
78430;SDS011;67727;50.236;22.452;2023-03-12T13:03:46;9.20;;;4.70;;
78430;SDS011;67727;50.236;22.452;2023-03-12T13:06:14;8.10;;;4.10;;
78430;SDS011;67727;50.236;22.452;2023-03-12T13:13:42;6.30;;;3.90;;
78430;SDS011;67727;50.236;22.452;2023-03-12T13:27:18;8.60;;;4.30;;
78430;SDS011;67727;50.236;22.452;2023-03-12T13:29:48;7.20;;;3.20;;
78430;SDS011;67727;50.236;22.452;2023-03-12T13:35:43;8.90;;;4.70;;
78430;SDS011;67727;50.236;22.452;2023-03-12T13:48:27;10.50;;;4.80;;
78430;SDS011;67727;50.236;22.452;2023-03-12T13:50:56;5.80;;;3.20;;
78430;SDS011;67727;50.236;22.452;2023-03-12T13:53:26;5.40;;;3.50;;
78430;SDS011;67727;50.236;22.452;2023-03-12T13:58:28;6.10;;;3.80;;
78430;SDS011;67727;50.236;22.452;2023-03-12T14:00:57;9.40;;;5.10;;
78430;SDS011;67727;50.236;22.452;2023-03-12T14:17:14;13.10;;;4.80;;
78430;SDS011;67727;50.236;22.452;2023-03-12T14:19:49;14.00;;;5.40;;
78430;SDS011;67727;50.236;22.452;2023-03-12T14:22:21;15.20;;;6.00;;
78430;SDS011;67727;50.236;22.452;2023-03-12T14:24:54;9.50;;;5.10;;
78430;SDS011;67727;50.236;22.452;2023-03-12T14:27:25;17.20;;;7.20;;
78430;SDS011;67727;50.236;22.452;2023-03-12T14:32:27;23.10;;;8.50;;
78430;SDS011;67727;50.236;22.452;2023-03-12T14:34:58;10.40;;;5.50;;
78430;SDS011;67727;50.236;22.452;2023-03-12T14:40:40;16.10;;;7.30;;
78430;SDS011;67727;50.236;22.452;2023-03-12T14:43:25;8.20;;;4.20;;
78430;SDS011;67727;50.236;22.452;2023-03-12T14:45:58;16.00;;;6.20;;
78430;SDS011;67727;50.236;22.452;2023-03-12T14:48:29;13.30;;;6.30;;
78430;SDS011;67727;50.236;22.452;2023-03-12T14:50:58;14.40;;;6.40;;
78430;SDS011;67727;50.236;22.452;2023-03-12T14:53:30;7.30;;;4.60;;
78430;SDS011;67727;50.236;22.452;2023-03-12T14:58:30;13.70;;;6.20;;
78430;SDS011;67727;50.236;22.452;2023-03-12T15:01:00;21.70;;;7.30;;
78430;SDS011;67727;50.236;22.452;2023-03-12T15:03:31;29.30;;;10.30;;
78430;SDS011;67727;50.236;22.452;2023-03-12T15:09:12;25.80;;;8.90;;
78430;SDS011;67727;50.236;22.452;2023-03-12T15:11:43;16.00;;;7.00;;
78430;SDS011;67727;50.236;22.452;2023-03-12T15:14:19;14.10;;;5.50;;
78430;SDS011;67727;50.236;22.452;2023-03-12T15:16:47;19.40;;;8.40;;
78430;SDS011;67727;50.236;22.452;2023-03-12T15:19:15;11.00;;;7.20;;
78430;SDS011;67727;50.236;22.452;2023-03-12T15:21:47;16.90;;;6.20;;
78430;SDS011;67727;50.236;22.452;2023-03-12T15:24:16;21.90;;;9.30;;
78430;SDS011;67727;50.236;22.452;2023-03-12T15:26:43;14.20;;;6.40;;
78430;SDS011;67727;50.236;22.452;2023-03-12T15:29:26;10.40;;;5.00;;
78430;SDS011;67727;50.236;22.452;2023-03-12T15:31:58;13.60;;;6.50;;
78430;SDS011;67727;50.236;22.452;2023-03-12T15:34:30;11.10;;;6.20;;
78430;SDS011;67727;50.236;22.452;2023-03-12T15:37:00;14.70;;;7.00;;
78430;SDS011;67727;50.236;22.452;2023-03-12T15:39:34;14.80;;;6.40;;
78430;SDS011;67727;50.236;22.452;2023-03-12T15:42:07;12.90;;;6.20;;
78430;SDS011;67727;50.236;22.452;2023-03-12T15:47:29;8.40;;;5.30;;
78430;SDS011;67727;50.236;22.452;2023-03-12T15:49:59;13.10;;;6.50;;
78430;SDS011;67727;50.236;22.452;2023-03-12T15:52:31;17.30;;;9.10;;
78430;SDS011;67727;50.236;22.452;2023-03-12T15:57:30;22.90;;;8.80;;
78430;SDS011;67727;50.236;22.452;2023-03-12T16:02:49;28.90;;;12.10;;
78430;SDS011;67727;50.236;22.452;2023-03-12T16:05:28;29.10;;;11.40;;
78430;SDS011;67727;50.236;22.452;2023-03-12T16:08:11;30.50;;;11.70;;
78430;SDS011;67727;50.236;22.452;2023-03-12T16:10:54;25.20;;;10.20;;
78430;SDS011;67727;50.236;22.452;2023-03-12T16:13:23;45.10;;;17.10;;
78430;SDS011;67727;50.236;22.452;2023-03-12T16:15:56;57.50;;;20.40;;
78430;SDS011;67727;50.236;22.452;2023-03-12T16:18:24;37.30;;;15.30;;
78430;SDS011;67727;50.236;22.452;2023-03-12T16:20:51;46.70;;;15.80;;
78430;SDS011;67727;50.236;22.452;2023-03-12T16:23:19;39.60;;;14.30;;
78430;SDS011;67727;50.236;22.452;2023-03-12T16:25:47;35.20;;;14.20;;
78430;SDS011;67727;50.236;22.452;2023-03-12T16:28:17;43.30;;;18.50;;
78430;SDS011;67727;50.236;22.452;2023-03-12T16:30:46;28.60;;;13.30;;
78430;SDS011;67727;50.236;22.452;2023-03-12T16:33:15;45.00;;;14.10;;
78430;SDS011;67727;50.236;22.452;2023-03-12T16:35:44;26.20;;;12.30;;
78430;SDS011;67727;50.236;22.452;2023-03-12T16:38:12;36.60;;;14.20;;
78430;SDS011;67727;50.236;22.452;2023-03-12T16:40:42;28.80;;;11.90;;
78430;SDS011;67727;50.236;22.452;2023-03-12T16:43:18;43.50;;;20.80;;
78430;SDS011;67727;50.236;22.452;2023-03-12T16:45:51;36.80;;;19.60;;
78430;SDS011;67727;50.236;22.452;2023-03-12T16:48:20;30.50;;;16.10;;
78430;SDS011;67727;50.236;22.452;2023-03-12T16:50:50;35.60;;;15.30;;
78430;SDS011;67727;50.236;22.452;2023-03-12T16:53:20;42.30;;;17.20;;
78430;SDS011;67727;50.236;22.452;2023-03-12T16:55:52;46.90;;;16.10;;
78430;SDS011;67727;50.236;22.452;2023-03-12T16:58:22;56.80;;;23.10;;
78430;SDS011;67727;50.236;22.452;2023-03-12T17:00:50;85.90;;;29.50;;
78430;SDS011;67727;50.236;22.452;2023-03-12T17:06:04;54.10;;;20.10;;
78430;SDS011;67727;50.236;22.452;2023-03-12T17:08:32;62.70;;;22.10;;
78430;SDS011;67727;50.236;22.452;2023-03-12T17:11:01;55.50;;;19.60;;